sensor_id;sensor_type;location;lat;lon;timestamp;temperature;humidity
15930;DHT22;8064;51.142;4.780;2023-04-03T00:02:18;4.00;99.90
15930;DHT22;8064;51.142;4.780;2023-04-03T00:04:43;4.00;99.90
15930;DHT22;8064;51.142;4.780;2023-04-03T00:07:10;4.00;99.90
15930;DHT22;8064;51.142;4.780;2023-04-03T00:09:35;4.00;99.90
15930;DHT22;8064;51.142;4.780;2023-04-03T00:12:01;4.00;99.90
15930;DHT22;8064;51.142;4.780;2023-04-03T00:14:27;4.00;99.90
15930;DHT22;8064;51.142;4.780;2023-04-03T00:16:53;4.00;99.90
15930;DHT22;8064;51.142;4.780;2023-04-03T00:19:19;4.10;99.90
15930;DHT22;8064;51.142;4.780;2023-04-03T00:21:45;4.10;99.90
15930;DHT22;8064;51.142;4.780;2023-04-03T00:24:11;4.10;99.90
15930;DHT22;8064;51.142;4.780;2023-04-03T00:26:37;4.10;99.90
15930;DHT22;8064;51.142;4.780;2023-04-03T00:29:03;4.20;99.90
15930;DHT22;8064;51.142;4.780;2023-04-03T00:31:29;4.20;99.90
15930;DHT22;8064;51.142;4.780;2023-04-03T00:33:54;4.20;99.90
15930;DHT22;8064;51.142;4.780;2023-04-03T00:36:20;4.20;99.90
15930;DHT22;8064;51.142;4.780;2023-04-03T00:38:46;4.20;99.90
15930;DHT22;8064;51.142;4.780;2023-04-03T00:41:12;4.20;99.90
15930;DHT22;8064;51.142;4.780;2023-04-03T00:43:38;4.20;99.90
15930;DHT22;8064;51.142;4.780;2023-04-03T00:46:04;4.20;99.90
15930;DHT22;8064;51.142;4.780;2023-04-03T00:50:59;4.20;99.90
15930;DHT22;8064;51.142;4.780;2023-04-03T00:53:29;4.20;99.90
15930;DHT22;8064;51.142;4.780;2023-04-03T00:55:56;4.20;99.90
15930;DHT22;8064;51.142;4.780;2023-04-03T00:58:29;4.20;99.90
15930;DHT22;8064;51.142;4.780;2023-04-03T01:00:58;4.30;99.90
15930;DHT22;8064;51.142;4.780;2023-04-03T01:03:25;4.30;99.90
15930;DHT22;8064;51.142;4.780;2023-04-03T01:05:51;4.30;99.90
15930;DHT22;8064;51.142;4.780;2023-04-03T01:08:17;4.30;99.90
15930;DHT22;8064;51.142;4.780;2023-04-03T01:10:43;4.30;99.90
15930;DHT22;8064;51.142;4.780;2023-04-03T01:13:26;4.30;99.90
15930;DHT22;8064;51.142;4.780;2023-04-03T01:15:52;4.30;99.90
15930;DHT22;8064;51.142;4.780;2023-04-03T01:18:18;4.30;99.90
15930;DHT22;8064;51.142;4.780;2023-04-03T01:21:07;4.40;99.90
15930;DHT22;8064;51.142;4.780;2023-04-03T01:23:59;4.40;99.90
15930;DHT22;8064;51.142;4.780;2023-04-03T01:26:28;4.40;99.90
15930;DHT22;8064;51.142;4.780;2023-04-03T01:28:54;4.40;99.90
15930;DHT22;8064;51.142;4.780;2023-04-03T01:31:26;4.40;99.90
15930;DHT22;8064;51.142;4.780;2023-04-03T01:33:53;4.30;99.90
15930;DHT22;8064;51.142;4.780;2023-04-03T01:36:23;4.30;99.90
15930;DHT22;8064;51.142;4.780;2023-04-03T01:38:50;4.30;99.90
15930;DHT22;8064;51.142;4.780;2023-04-03T01:41:17;4.30;99.90
15930;DHT22;8064;51.142;4.780;2023-04-03T01:43:43;4.20;99.90
15930;DHT22;8064;51.142;4.780;2023-04-03T01:46:09;4.20;99.90
15930;DHT22;8064;51.142;4.780;2023-04-03T01:48:35;4.20;99.90
15930;DHT22;8064;51.142;4.780;2023-04-03T01:51:00;4.10;99.90
15930;DHT22;8064;51.142;4.780;2023-04-03T01:53:26;4.10;99.90
15930;DHT22;8064;51.142;4.780;2023-04-03T01:55:52;4.10;99.90
15930;DHT22;8064;51.142;4.780;2023-04-03T01:58:18;4.00;99.90
15930;DHT22;8064;51.142;4.780;2023-04-03T02:00:44;4.00;99.90
15930;DHT22;8064;51.142;4.780;2023-04-03T02:03:09;4.00;99.90
15930;DHT22;8064;51.142;4.780;2023-04-03T02:05:35;4.00;99.90
15930;DHT22;8064;51.142;4.780;2023-04-03T02:08:01;3.90;99.90
15930;DHT22;8064;51.142;4.780;2023-04-03T02:10:27;3.90;99.90
15930;DHT22;8064;51.142;4.780;2023-04-03T02:12:53;3.80;99.90
15930;DHT22;8064;51.142;4.780;2023-04-03T02:15:18;3.80;99.90
15930;DHT22;8064;51.142;4.780;2023-04-03T02:17:44;3.80;99.90
15930;DHT22;8064;51.142;4.780;2023-04-03T02:20:10;3.80;99.90
15930;DHT22;8064;51.142;4.780;2023-04-03T02:22:36;3.70;99.90
15930;DHT22;8064;51.142;4.780;2023-04-03T02:25:02;3.70;99.90
15930;DHT22;8064;51.142;4.780;2023-04-03T02:27:28;3.70;99.90
15930;DHT22;8064;51.142;4.780;2023-04-03T02:29:53;3.60;99.90
15930;DHT22;8064;51.142;4.780;2023-04-03T02:32:19;3.60;99.90
15930;DHT22;8064;51.142;4.780;2023-04-03T02:34:45;3.60;99.90
15930;DHT22;8064;51.142;4.780;2023-04-03T02:37:11;3.50;99.90
15930;DHT22;8064;51.142;4.780;2023-04-03T02:39:37;3.50;99.90
15930;DHT22;8064;51.142;4.780;2023-04-03T02:42:03;3.50;99.90
15930;DHT22;8064;51.142;4.780;2023-04-03T02:44:29;3.50;99.90
15930;DHT22;8064;51.142;4.780;2023-04-03T02:46:55;3.50;99.90
15930;DHT22;8064;51.142;4.780;2023-04-03T02:49:21;3.50;99.90
15930;DHT22;8064;51.142;4.780;2023-04-03T02:51:47;3.50;99.90
15930;DHT22;8064;51.142;4.780;2023-04-03T02:54:13;3.50;99.90
15930;DHT22;8064;51.142;4.780;2023-04-03T02:56:39;3.50;99.90
15930;DHT22;8064;51.142;4.780;2023-04-03T02:59:05;3.40;99.90
15930;DHT22;8064;51.142;4.780;2023-04-03T03:01:31;3.40;99.90
15930;DHT22;8064;51.142;4.780;2023-04-03T03:03:59;3.40;99.90
15930;DHT22;8064;51.142;4.780;2023-04-03T03:06:25;3.40;99.90
15930;DHT22;8064;51.142;4.780;2023-04-03T03:08:51;3.40;99.90
15930;DHT22;8064;51.142;4.780;2023-04-03T03:11:17;3.30;99.90
15930;DHT22;8064;51.142;4.780;2023-04-03T03:13:44;3.40;99.90
15930;DHT22;8064;51.142;4.780;2023-04-03T03:16:10;3.40;99.90
15930;DHT22;8064;51.142;4.780;2023-04-03T03:18:36;3.40;99.90
15930;DHT22;8064;51.142;4.780;2023-04-03T03:21:03;3.40;99.90
15930;DHT22;8064;51.142;4.780;2023-04-03T03:23:30;3.40;99.90
15930;DHT22;8064;51.142;4.780;2023-04-03T03:26:00;3.40;99.90
15930;DHT22;8064;51.142;4.780;2023-04-03T03:28:26;3.40;99.90
15930;DHT22;8064;51.142;4.780;2023-04-03T03:30:52;3.50;99.90
15930;DHT22;8064;51.142;4.780;2023-04-03T03:33:18;3.50;99.90
15930;DHT22;8064;51.142;4.780;2023-04-03T03:35:45;3.50;99.90
15930;DHT22;8064;51.142;4.780;2023-04-03T03:38:11;3.50;99.90
15930;DHT22;8064;51.142;4.780;2023-04-03T03:40:36;3.50;99.90
15930;DHT22;8064;51.142;4.780;2023-04-03T03:43:02;3.50;99.90
15930;DHT22;8064;51.142;4.780;2023-04-03T03:45:28;3.50;99.90
15930;DHT22;8064;51.142;4.780;2023-04-03T03:47:54;3.50;99.90
15930;DHT22;8064;51.142;4.780;2023-04-03T03:50:20;3.50;99.90
15930;DHT22;8064;51.142;4.780;2023-04-03T03:52:46;3.50;99.90
15930;DHT22;8064;51.142;4.780;2023-04-03T03:55:12;3.50;99.90
15930;DHT22;8064;51.142;4.780;2023-04-03T03:57:38;3.40;99.90
15930;DHT22;8064;51.142;4.780;2023-04-03T04:00:04;3.40;99.90
15930;DHT22;8064;51.142;4.780;2023-04-03T04:02:30;3.40;99.90
15930;DHT22;8064;51.142;4.780;2023-04-03T04:04:56;3.40;99.90
15930;DHT22;8064;51.142;4.780;2023-04-03T04:07:22;3.30;99.90
15930;DHT22;8064;51.142;4.780;2023-04-03T04:09:48;3.40;99.90
15930;DHT22;8064;51.142;4.780;2023-04-03T04:12:14;3.40;99.90
15930;DHT22;8064;51.142;4.780;2023-04-03T04:14:39;3.40;99.90
15930;DHT22;8064;51.142;4.780;2023-04-03T04:17:05;3.30;99.90
15930;DHT22;8064;51.142;4.780;2023-04-03T04:19:31;3.40;99.90
15930;DHT22;8064;51.142;4.780;2023-04-03T04:21:57;3.30;99.90
15930;DHT22;8064;51.142;4.780;2023-04-03T04:24:23;3.30;99.90
15930;DHT22;8064;51.142;4.780;2023-04-03T04:26:48;3.30;99.90
15930;DHT22;8064;51.142;4.780;2023-04-03T04:29:14;3.30;99.90
15930;DHT22;8064;51.142;4.780;2023-04-03T04:31:40;3.30;99.90
15930;DHT22;8064;51.142;4.780;2023-04-03T04:34:06;3.30;99.90
15930;DHT22;8064;51.142;4.780;2023-04-03T04:36:32;3.30;99.90
15930;DHT22;8064;51.142;4.780;2023-04-03T04:38:58;3.30;99.90
15930;DHT22;8064;51.142;4.780;2023-04-03T04:41:24;3.30;99.90
15930;DHT22;8064;51.142;4.780;2023-04-03T04:43:50;3.30;99.90
15930;DHT22;8064;51.142;4.780;2023-04-03T04:46:16;3.30;99.90
15930;DHT22;8064;51.142;4.780;2023-04-03T04:48:41;3.20;99.90
15930;DHT22;8064;51.142;4.780;2023-04-03T04:51:07;3.20;99.90
15930;DHT22;8064;51.142;4.780;2023-04-03T04:53:33;3.20;99.90
15930;DHT22;8064;51.142;4.780;2023-04-03T04:55:59;3.20;99.90
15930;DHT22;8064;51.142;4.780;2023-04-03T04:58:25;3.20;99.90
15930;DHT22;8064;51.142;4.780;2023-04-03T05:00:59;3.20;99.90
15930;DHT22;8064;51.142;4.780;2023-04-03T05:03:25;3.20;99.90
15930;DHT22;8064;51.142;4.780;2023-04-03T05:05:51;3.20;99.90
15930;DHT22;8064;51.142;4.780;2023-04-03T05:08:16;3.20;99.90
15930;DHT22;8064;51.142;4.780;2023-04-03T05:10:44;3.20;99.90
15930;DHT22;8064;51.142;4.780;2023-04-03T05:13:10;3.20;99.90
15930;DHT22;8064;51.142;4.780;2023-04-03T05:15:35;3.20;99.90
15930;DHT22;8064;51.142;4.780;2023-04-03T05:18:01;3.20;99.90
15930;DHT22;8064;51.142;4.780;2023-04-03T05:20:27;3.10;99.90
15930;DHT22;8064;51.142;4.780;2023-04-03T05:22:52;3.10;99.90
15930;DHT22;8064;51.142;4.780;2023-04-03T05:25:18;3.20;99.90
15930;DHT22;8064;51.142;4.780;2023-04-03T05:27:44;3.20;99.90
15930;DHT22;8064;51.142;4.780;2023-04-03T05:30:10;3.20;99.90
15930;DHT22;8064;51.142;4.780;2023-04-03T05:32:36;3.20;99.90
15930;DHT22;8064;51.142;4.780;2023-04-03T05:35:02;3.20;99.90
15930;DHT22;8064;51.142;4.780;2023-04-03T05:37:28;3.30;99.90
15930;DHT22;8064;51.142;4.780;2023-04-03T05:39:53;3.30;99.90
15930;DHT22;8064;51.142;4.780;2023-04-03T05:42:19;3.30;99.90
15930;DHT22;8064;51.142;4.780;2023-04-03T05:44:45;3.40;99.90
15930;DHT22;8064;51.142;4.780;2023-04-03T05:47:12;3.40;99.90
15930;DHT22;8064;51.142;4.780;2023-04-03T05:49:38;3.50;99.90
15930;DHT22;8064;51.142;4.780;2023-04-03T05:54:48;3.60;99.90
15930;DHT22;8064;51.142;4.780;2023-04-03T05:57:15;3.70;99.90
15930;DHT22;8064;51.142;4.780;2023-04-03T05:59:42;3.80;99.90
15930;DHT22;8064;51.142;4.780;2023-04-03T06:02:12;3.90;99.90
15930;DHT22;8064;51.142;4.780;2023-04-03T06:04:39;4.00;99.90
15930;DHT22;8064;51.142;4.780;2023-04-03T06:07:05;4.20;99.90
15930;DHT22;8064;51.142;4.780;2023-04-03T06:09:31;4.30;99.90
15930;DHT22;8064;51.142;4.780;2023-04-03T06:11:57;4.40;99.90
15930;DHT22;8064;51.142;4.780;2023-04-03T06:14:25;4.60;99.90
15930;DHT22;8064;51.142;4.780;2023-04-03T06:16:51;4.70;99.90
15930;DHT22;8064;51.142;4.780;2023-04-03T06:19:17;4.80;99.90
15930;DHT22;8064;51.142;4.780;2023-04-03T06:21:43;5.00;99.90
15930;DHT22;8064;51.142;4.780;2023-04-03T06:24:10;5.10;99.90
15930;DHT22;8064;51.142;4.780;2023-04-03T06:26:37;5.30;99.90
15930;DHT22;8064;51.142;4.780;2023-04-03T06:29:03;5.40;99.90
15930;DHT22;8064;51.142;4.780;2023-04-03T06:31:29;5.50;99.90
15930;DHT22;8064;51.142;4.780;2023-04-03T06:33:55;5.60;99.90
15930;DHT22;8064;51.142;4.780;2023-04-03T06:36:22;5.70;99.90
15930;DHT22;8064;51.142;4.780;2023-04-03T06:38:48;5.80;99.90
15930;DHT22;8064;51.142;4.780;2023-04-03T06:41:14;5.90;99.90
15930;DHT22;8064;51.142;4.780;2023-04-03T06:43:40;6.10;99.90
15930;DHT22;8064;51.142;4.780;2023-04-03T06:46:06;6.20;99.90
15930;DHT22;8064;51.142;4.780;2023-04-03T06:48:31;6.30;99.90
15930;DHT22;8064;51.142;4.780;2023-04-03T06:50:57;6.40;99.90
15930;DHT22;8064;51.142;4.780;2023-04-03T06:53:23;6.50;99.90
15930;DHT22;8064;51.142;4.780;2023-04-03T06:55:49;6.70;99.90
15930;DHT22;8064;51.142;4.780;2023-04-03T06:58:15;6.80;99.90
15930;DHT22;8064;51.142;4.780;2023-04-03T07:00:43;6.80;99.90
15930;DHT22;8064;51.142;4.780;2023-04-03T07:03:09;6.90;99.90
15930;DHT22;8064;51.142;4.780;2023-04-03T07:05:34;7.10;99.90
15930;DHT22;8064;51.142;4.780;2023-04-03T07:08:00;7.20;99.90
15930;DHT22;8064;51.142;4.780;2023-04-03T07:10:27;7.30;99.90
15930;DHT22;8064;51.142;4.780;2023-04-03T07:12:52;7.40;99.90
15930;DHT22;8064;51.142;4.780;2023-04-03T07:15:18;7.50;99.90
15930;DHT22;8064;51.142;4.780;2023-04-03T07:17:44;7.60;99.90
15930;DHT22;8064;51.142;4.780;2023-04-03T07:20:10;7.70;99.90
15930;DHT22;8064;51.142;4.780;2023-04-03T07:22:36;7.80;99.90
15930;DHT22;8064;51.142;4.780;2023-04-03T07:25:02;7.90;99.90
15930;DHT22;8064;51.142;4.780;2023-04-03T07:27:28;8.00;99.90
15930;DHT22;8064;51.142;4.780;2023-04-03T07:29:54;8.10;99.90
15930;DHT22;8064;51.142;4.780;2023-04-03T07:32:21;8.20;99.90
15930;DHT22;8064;51.142;4.780;2023-04-03T07:34:47;8.30;99.90
15930;DHT22;8064;51.142;4.780;2023-04-03T07:37:12;8.40;99.90
15930;DHT22;8064;51.142;4.780;2023-04-03T07:39:38;8.50;99.90
15930;DHT22;8064;51.142;4.780;2023-04-03T07:42:04;8.60;99.90
15930;DHT22;8064;51.142;4.780;2023-04-03T07:44:30;8.70;99.90
15930;DHT22;8064;51.142;4.780;2023-04-03T07:46:56;8.80;99.90
15930;DHT22;8064;51.142;4.780;2023-04-03T07:49:22;9.00;99.90
15930;DHT22;8064;51.142;4.780;2023-04-03T07:51:50;9.10;99.90
15930;DHT22;8064;51.142;4.780;2023-04-03T07:54:15;9.30;99.90
15930;DHT22;8064;51.142;4.780;2023-04-03T07:56:42;9.40;99.90
15930;DHT22;8064;51.142;4.780;2023-04-03T07:59:09;9.60;99.90
15930;DHT22;8064;51.142;4.780;2023-04-03T08:01:35;9.70;99.90
15930;DHT22;8064;51.142;4.780;2023-04-03T08:04:01;9.80;99.90
15930;DHT22;8064;51.142;4.780;2023-04-03T08:06:27;9.90;99.90
15930;DHT22;8064;51.142;4.780;2023-04-03T08:08:55;10.00;99.70
15930;DHT22;8064;51.142;4.780;2023-04-03T08:11:21;10.00;99.60
15930;DHT22;8064;51.142;4.780;2023-04-03T08:13:49;10.10;99.50
15930;DHT22;8064;51.142;4.780;2023-04-03T08:16:18;10.30;99.40
15930;DHT22;8064;51.142;4.780;2023-04-03T08:18:45;10.40;99.20
15930;DHT22;8064;51.142;4.780;2023-04-03T08:21:12;10.50;99.00
15930;DHT22;8064;51.142;4.780;2023-04-03T08:23:40;10.70;98.70
15930;DHT22;8064;51.142;4.780;2023-04-03T08:26:09;10.80;98.50
15930;DHT22;8064;51.142;4.780;2023-04-03T08:28:35;10.90;98.30
15930;DHT22;8064;51.142;4.780;2023-04-03T08:31:19;11.10;98.40
15930;DHT22;8064;51.142;4.780;2023-04-03T08:33:45;11.20;98.00
15930;DHT22;8064;51.142;4.780;2023-04-03T08:39:02;11.50;97.50
15930;DHT22;8064;51.142;4.780;2023-04-03T08:41:34;11.70;97.60
15930;DHT22;8064;51.142;4.780;2023-04-03T08:44:07;11.70;97.30
15930;DHT22;8064;51.142;4.780;2023-04-03T08:51:50;12.10;96.40
15930;DHT22;8064;51.142;4.780;2023-04-03T08:54:35;12.20;96.30
15930;DHT22;8064;51.142;4.780;2023-04-03T08:57:04;12.30;95.70
15930;DHT22;8064;51.142;4.780;2023-04-03T08:59:35;12.50;95.50
15930;DHT22;8064;51.142;4.780;2023-04-03T09:02:13;12.60;95.60
15930;DHT22;8064;51.142;4.780;2023-04-03T09:04:44;12.70;95.10
15930;DHT22;8064;51.142;4.780;2023-04-03T09:07:19;12.90;95.00
15930;DHT22;8064;51.142;4.780;2023-04-03T09:09:46;13.00;94.40
15930;DHT22;8064;51.142;4.780;2023-04-03T09:15:21;13.10;93.80
15930;DHT22;8064;51.142;4.780;2023-04-03T09:20:24;13.30;93.40
15930;DHT22;8064;51.142;4.780;2023-04-03T09:22:52;13.40;93.30
15930;DHT22;8064;51.142;4.780;2023-04-03T09:25:23;13.50;92.80
15930;DHT22;8064;51.142;4.780;2023-04-03T09:27:49;13.60;92.70
15930;DHT22;8064;51.142;4.780;2023-04-03T09:30:20;13.80;92.40
15930;DHT22;8064;51.142;4.780;2023-04-03T09:32:48;13.90;92.00
15930;DHT22;8064;51.142;4.780;2023-04-03T09:35:19;13.90;91.90
15930;DHT22;8064;51.142;4.780;2023-04-03T09:37:48;14.00;91.70
15930;DHT22;8064;51.142;4.780;2023-04-03T09:42:53;14.10;91.30
15930;DHT22;8064;51.142;4.780;2023-04-03T09:45:37;14.20;91.20
15930;DHT22;8064;51.142;4.780;2023-04-03T09:50:33;14.50;90.20
15930;DHT22;8064;51.142;4.780;2023-04-03T09:53:05;14.50;90.00
15930;DHT22;8064;51.142;4.780;2023-04-03T09:55:33;14.70;89.50
15930;DHT22;8064;51.142;4.780;2023-04-03T09:58:25;14.70;89.40
15930;DHT22;8064;51.142;4.780;2023-04-03T10:01:20;14.80;87.60
15930;DHT22;8064;51.142;4.780;2023-04-03T10:04:13;14.90;86.40
15930;DHT22;8064;51.142;4.780;2023-04-03T10:06:42;15.10;85.80
15930;DHT22;8064;51.142;4.780;2023-04-03T10:12:04;15.20;83.40
15930;DHT22;8064;51.142;4.780;2023-04-03T10:14:32;15.30;82.20
15930;DHT22;8064;51.142;4.780;2023-04-03T10:17:31;15.40;82.40
15930;DHT22;8064;51.142;4.780;2023-04-03T10:20:07;15.50;81.00
15930;DHT22;8064;51.142;4.780;2023-04-03T10:26:01;15.70;79.40
15930;DHT22;8064;51.142;4.780;2023-04-03T10:28:48;15.70;78.10
15930;DHT22;8064;51.142;4.780;2023-04-03T10:34:03;15.90;76.00
15930;DHT22;8064;51.142;4.780;2023-04-03T10:44:37;16.10;71.70
15930;DHT22;8064;51.142;4.780;2023-04-03T10:47:40;16.20;70.50
15930;DHT22;8064;51.142;4.780;2023-04-03T10:50:26;16.20;70.40
15930;DHT22;8064;51.142;4.780;2023-04-03T10:55:50;16.30;69.70
15930;DHT22;8064;51.142;4.780;2023-04-03T10:58:26;16.30;68.10
15930;DHT22;8064;51.142;4.780;2023-04-03T11:00:59;16.30;68.20
15930;DHT22;8064;51.142;4.780;2023-04-03T11:06:09;16.40;68.00
15930;DHT22;8064;51.142;4.780;2023-04-03T11:08:53;16.50;66.60
15930;DHT22;8064;51.142;4.780;2023-04-03T11:11:25;16.50;65.40
15930;DHT22;8064;51.142;4.780;2023-04-03T11:13:58;16.50;65.60
15930;DHT22;8064;51.142;4.780;2023-04-03T11:16:28;16.50;64.10
15930;DHT22;8064;51.142;4.780;2023-04-03T11:18:59;16.50;63.60
15930;DHT22;8064;51.142;4.780;2023-04-03T11:21:29;16.50;62.00
15930;DHT22;8064;51.142;4.780;2023-04-03T11:23:57;16.40;61.50
15930;DHT22;8064;51.142;4.780;2023-04-03T11:26:29;16.40;61.10
15930;DHT22;8064;51.142;4.780;2023-04-03T11:29:03;16.30;60.80
15930;DHT22;8064;51.142;4.780;2023-04-03T11:40:28;15.90;58.80
15930;DHT22;8064;51.142;4.780;2023-04-03T11:43:05;15.90;59.00
15930;DHT22;8064;51.142;4.780;2023-04-03T11:45:33;15.80;59.50
15930;DHT22;8064;51.142;4.780;2023-04-03T11:48:03;15.70;59.40
15930;DHT22;8064;51.142;4.780;2023-04-03T11:50:44;15.60;59.20
15930;DHT22;8064;51.142;4.780;2023-04-03T11:58:18;15.30;58.70
15930;DHT22;8064;51.142;4.780;2023-04-03T12:03:32;15.20;58.70
15930;DHT22;8064;51.142;4.780;2023-04-03T12:06:41;15.10;58.00
15930;DHT22;8064;51.142;4.780;2023-04-03T12:08:47;15.00;58.70
15930;DHT22;8064;51.142;4.780;2023-04-03T12:11:24;15.00;59.20
15930;DHT22;8064;51.142;4.780;2023-04-03T12:16:44;14.90;58.40
15930;DHT22;8064;51.142;4.780;2023-04-03T12:19:31;14.80;57.70
15930;DHT22;8064;51.142;4.780;2023-04-03T12:24:41;14.50;58.10
15930;DHT22;8064;51.142;4.780;2023-04-03T12:27:27;14.40;57.90
15930;DHT22;8064;51.142;4.780;2023-04-03T12:30:00;14.40;58.10
15930;DHT22;8064;51.142;4.780;2023-04-03T12:41:23;14.20;59.80
15930;DHT22;8064;51.142;4.780;2023-04-03T12:46:54;14.10;58.50
15930;DHT22;8064;51.142;4.780;2023-04-03T12:51:56;14.00;59.00
15930;DHT22;8064;51.142;4.780;2023-04-03T12:57:10;14.00;59.40
15930;DHT22;8064;51.142;4.780;2023-04-03T12:59:36;13.90;58.60
15930;DHT22;8064;51.142;4.780;2023-04-03T13:02:23;13.90;60.00
15930;DHT22;8064;51.142;4.780;2023-04-03T13:04:51;13.80;59.40
15930;DHT22;8064;51.142;4.780;2023-04-03T13:07:23;13.80;59.40
15930;DHT22;8064;51.142;4.780;2023-04-03T13:15:29;13.70;58.40
15930;DHT22;8064;51.142;4.780;2023-04-03T13:17:56;13.70;58.20
15930;DHT22;8064;51.142;4.780;2023-04-03T13:20:26;13.60;58.30
15930;DHT22;8064;51.142;4.780;2023-04-03T13:23:04;13.60;58.40
15930;DHT22;8064;51.142;4.780;2023-04-03T13:25:33;13.60;58.10
15930;DHT22;8064;51.142;4.780;2023-04-03T13:28:02;13.60;57.90
15930;DHT22;8064;51.142;4.780;2023-04-03T13:30:55;13.60;58.30
15930;DHT22;8064;51.142;4.780;2023-04-03T13:33:25;13.70;56.90
15930;DHT22;8064;51.142;4.780;2023-04-03T13:39:04;13.60;56.10
15930;DHT22;8064;51.142;4.780;2023-04-03T13:41:39;13.60;56.40
15930;DHT22;8064;51.142;4.780;2023-04-03T13:44:23;13.50;57.10
15930;DHT22;8064;51.142;4.780;2023-04-03T13:46:53;13.60;57.20
15930;DHT22;8064;51.142;4.780;2023-04-03T14:03:47;13.70;55.60
15930;DHT22;8064;51.142;4.780;2023-04-03T14:06:15;13.60;56.40
15930;DHT22;8064;51.142;4.780;2023-04-03T14:08:42;13.60;56.20
15930;DHT22;8064;51.142;4.780;2023-04-03T14:13:49;13.60;56.00
15930;DHT22;8064;51.142;4.780;2023-04-03T14:16:20;13.60;56.30
15930;DHT22;8064;51.142;4.780;2023-04-03T14:18:47;13.60;56.10
15930;DHT22;8064;51.142;4.780;2023-04-03T14:21:15;13.60;56.10
15930;DHT22;8064;51.142;4.780;2023-04-03T14:23:41;13.60;56.00
15930;DHT22;8064;51.142;4.780;2023-04-03T14:26:11;13.60;55.50
15930;DHT22;8064;51.142;4.780;2023-04-03T14:28:38;13.60;55.50
15930;DHT22;8064;51.142;4.780;2023-04-03T14:31:05;13.60;55.50
15930;DHT22;8064;51.142;4.780;2023-04-03T14:33:32;13.60;55.60
15930;DHT22;8064;51.142;4.780;2023-04-03T14:36:01;13.60;55.60
15930;DHT22;8064;51.142;4.780;2023-04-03T14:38:30;13.60;55.10
15930;DHT22;8064;51.142;4.780;2023-04-03T14:40:58;13.60;55.10
15930;DHT22;8064;51.142;4.780;2023-04-03T14:43:23;13.50;55.00
15930;DHT22;8064;51.142;4.780;2023-04-03T14:45:50;13.50;54.90
15930;DHT22;8064;51.142;4.780;2023-04-03T14:48:21;13.40;55.20
15930;DHT22;8064;51.142;4.780;2023-04-03T14:50:48;13.40;55.30
15930;DHT22;8064;51.142;4.780;2023-04-03T14:53:14;13.40;55.00
15930;DHT22;8064;51.142;4.780;2023-04-03T14:55:43;13.40;54.90
15930;DHT22;8064;51.142;4.780;2023-04-03T14:58:13;13.40;54.80
15930;DHT22;8064;51.142;4.780;2023-04-03T15:00:40;13.40;55.20
15930;DHT22;8064;51.142;4.780;2023-04-03T15:03:06;13.40;55.30
15930;DHT22;8064;51.142;4.780;2023-04-03T15:05:31;13.30;54.90
15930;DHT22;8064;51.142;4.780;2023-04-03T15:07:57;13.30;54.80
15930;DHT22;8064;51.142;4.780;2023-04-03T15:10:27;13.30;55.10
15930;DHT22;8064;51.142;4.780;2023-04-03T15:12:54;13.30;55.40
15930;DHT22;8064;51.142;4.780;2023-04-03T15:15:23;13.30;55.70
15930;DHT22;8064;51.142;4.780;2023-04-03T15:18:00;13.30;55.90
15930;DHT22;8064;51.142;4.780;2023-04-03T15:20:27;13.40;55.50
15930;DHT22;8064;51.142;4.780;2023-04-03T15:22:55;13.40;55.60
15930;DHT22;8064;51.142;4.780;2023-04-03T15:25:22;13.40;55.80
15930;DHT22;8064;51.142;4.780;2023-04-03T15:27:48;13.30;55.90
15930;DHT22;8064;51.142;4.780;2023-04-03T15:30:17;13.30;56.00
15930;DHT22;8064;51.142;4.780;2023-04-03T15:32:42;13.30;56.10
15930;DHT22;8064;51.142;4.780;2023-04-03T15:35:08;13.20;56.30
15930;DHT22;8064;51.142;4.780;2023-04-03T15:37:34;13.20;56.80
15930;DHT22;8064;51.142;4.780;2023-04-03T15:40:01;13.10;56.80
15930;DHT22;8064;51.142;4.780;2023-04-03T15:42:26;13.00;57.00
15930;DHT22;8064;51.142;4.780;2023-04-03T15:44:52;13.00;56.80
15930;DHT22;8064;51.142;4.780;2023-04-03T15:47:18;13.00;56.90
15930;DHT22;8064;51.142;4.780;2023-04-03T15:49:44;12.90;57.20
15930;DHT22;8064;51.142;4.780;2023-04-03T15:52:09;12.80;57.30
15930;DHT22;8064;51.142;4.780;2023-04-03T15:54:35;12.70;56.90
15930;DHT22;8064;51.142;4.780;2023-04-03T15:57:01;12.60;56.70
15930;DHT22;8064;51.142;4.780;2023-04-03T15:59:27;12.60;56.90
15930;DHT22;8064;51.142;4.780;2023-04-03T16:01:54;12.50;57.10
15930;DHT22;8064;51.142;4.780;2023-04-03T16:04:20;12.40;57.50
15930;DHT22;8064;51.142;4.780;2023-04-03T16:06:46;12.40;57.90
15930;DHT22;8064;51.142;4.780;2023-04-03T16:09:12;12.30;58.00
15930;DHT22;8064;51.142;4.780;2023-04-03T16:11:38;12.30;58.20
15930;DHT22;8064;51.142;4.780;2023-04-03T16:14:06;12.20;58.20
15930;DHT22;8064;51.142;4.780;2023-04-03T16:16:32;12.20;58.70
15930;DHT22;8064;51.142;4.780;2023-04-03T16:18:58;12.10;57.90
15930;DHT22;8064;51.142;4.780;2023-04-03T16:21:24;12.10;58.20
15930;DHT22;8064;51.142;4.780;2023-04-03T16:23:50;12.00;58.40
15930;DHT22;8064;51.142;4.780;2023-04-03T16:26:16;12.00;58.50
15930;DHT22;8064;51.142;4.780;2023-04-03T16:28:43;12.00;58.50
15930;DHT22;8064;51.142;4.780;2023-04-03T16:31:09;11.90;58.30
15930;DHT22;8064;51.142;4.780;2023-04-03T16:33:35;11.90;58.50
15930;DHT22;8064;51.142;4.780;2023-04-03T16:36:03;11.80;58.50
15930;DHT22;8064;51.142;4.780;2023-04-03T16:38:29;11.70;58.30
15930;DHT22;8064;51.142;4.780;2023-04-03T16:40:55;11.70;58.40
15930;DHT22;8064;51.142;4.780;2023-04-03T16:43:25;11.60;58.50
15930;DHT22;8064;51.142;4.780;2023-04-03T16:45:51;11.50;58.50
15930;DHT22;8064;51.142;4.780;2023-04-03T16:48:17;11.50;58.70
15930;DHT22;8064;51.142;4.780;2023-04-03T16:50:46;11.40;58.80
15930;DHT22;8064;51.142;4.780;2023-04-03T16:53:13;11.40;59.00
15930;DHT22;8064;51.142;4.780;2023-04-03T16:55:39;11.30;59.20
15930;DHT22;8064;51.142;4.780;2023-04-03T16:58:05;11.30;59.60
15930;DHT22;8064;51.142;4.780;2023-04-03T17:00:32;11.30;59.60
15930;DHT22;8064;51.142;4.780;2023-04-03T17:02:58;11.20;59.40
15930;DHT22;8064;51.142;4.780;2023-04-03T17:05:24;11.20;59.40
15930;DHT22;8064;51.142;4.780;2023-04-03T17:07:50;11.10;59.40
15930;DHT22;8064;51.142;4.780;2023-04-03T17:10:16;11.00;60.10
15930;DHT22;8064;51.142;4.780;2023-04-03T17:12:42;11.00;59.60
15930;DHT22;8064;51.142;4.780;2023-04-03T17:15:08;10.90;59.60
15930;DHT22;8064;51.142;4.780;2023-04-03T17:17:33;10.90;59.90
15930;DHT22;8064;51.142;4.780;2023-04-03T17:20:00;10.90;60.20
15930;DHT22;8064;51.142;4.780;2023-04-03T17:22:26;10.80;60.40
15930;DHT22;8064;51.142;4.780;2023-04-03T17:24:52;10.80;60.50
15930;DHT22;8064;51.142;4.780;2023-04-03T17:27:18;10.70;61.40
15930;DHT22;8064;51.142;4.780;2023-04-03T17:29:44;10.70;60.70
15930;DHT22;8064;51.142;4.780;2023-04-03T17:32:10;10.60;60.90
15930;DHT22;8064;51.142;4.780;2023-04-03T17:34:35;10.60;61.20
15930;DHT22;8064;51.142;4.780;2023-04-03T17:37:02;10.50;61.20
15930;DHT22;8064;51.142;4.780;2023-04-03T17:39:27;10.50;61.00
15930;DHT22;8064;51.142;4.780;2023-04-03T17:41:53;10.40;61.10
15930;DHT22;8064;51.142;4.780;2023-04-03T17:44:20;10.30;61.40
15930;DHT22;8064;51.142;4.780;2023-04-03T17:46:46;10.30;61.60
15930;DHT22;8064;51.142;4.780;2023-04-03T17:49:11;10.30;61.70
15930;DHT22;8064;51.142;4.780;2023-04-03T17:51:40;10.20;61.90
15930;DHT22;8064;51.142;4.780;2023-04-03T17:54:06;10.20;62.10